createdAt,value
2024-02-21T00:00:34.975Z,5.68
2024-02-21T00:03:01.683Z,6.32
2024-02-21T00:05:28.472Z,5.82
2024-02-21T00:07:56.700Z,5.90
2024-02-21T00:10:23.802Z,5.45
2024-02-21T00:12:50.527Z,4.93
2024-02-21T00:15:17.115Z,5.85
2024-02-21T00:17:45.106Z,6.40
2024-02-21T00:20:12.332Z,6.05
2024-02-21T00:22:39.144Z,5.97
2024-02-21T00:25:07.910Z,5.00
2024-02-21T00:27:34.586Z,6.03
2024-02-21T00:30:01.337Z,5.47
2024-02-21T00:32:28.089Z,6.53
2024-02-21T00:34:54.927Z,5.15
2024-02-21T00:37:21.626Z,5.90
2024-02-21T00:39:48.229Z,4.57
2024-02-21T00:42:16.240Z,6.40
2024-02-21T00:44:42.815Z,4.68
2024-02-21T00:47:09.412Z,5.95
2024-02-21T00:49:36.052Z,4.95
2024-02-21T00:52:02.702Z,5.00
2024-02-21T00:54:37.130Z,5.25
2024-02-21T00:57:11.321Z,5.10
2024-02-21T00:59:39.237Z,5.47
2024-02-21T01:02:05.872Z,4.70
2024-02-21T01:04:32.874Z,5.30
2024-02-21T01:06:59.529Z,4.93
2024-02-21T01:09:26.327Z,4.90
2024-02-21T01:11:53.060Z,4.45
2024-02-21T01:14:20.240Z,5.47
2024-02-21T01:16:50.380Z,4.75
2024-02-21T01:19:17.214Z,5.75
2024-02-21T01:21:46.295Z,4.55
2024-02-21T01:24:13.000Z,4.93
2024-02-21T01:26:39.703Z,4.68
2024-02-21T01:29:06.284Z,4.53
2024-02-21T01:31:32.936Z,4.55
2024-02-21T01:34:01.015Z,4.88
2024-02-21T01:36:27.596Z,4.80
2024-02-21T01:38:54.207Z,5.05
2024-02-21T01:41:20.906Z,4.57
2024-02-21T01:43:47.594Z,4.60
2024-02-21T01:46:14.280Z,4.78
2024-02-21T01:48:41.441Z,4.30
2024-02-21T01:51:09.657Z,5.07
2024-02-21T01:53:38.961Z,4.75
2024-02-21T01:56:07.008Z,5.90
2024-02-21T01:58:37.335Z,5.47
2024-02-21T02:01:04.505Z,4.65
2024-02-21T02:03:32.005Z,5.22
2024-02-21T02:05:58.691Z,5.35
2024-02-21T02:08:27.021Z,6.35
2024-02-21T02:10:54.005Z,5.35
2024-02-21T02:13:22.585Z,3.90
2024-02-21T02:15:50.208Z,4.72
2024-02-21T02:18:18.875Z,4.38
2024-02-21T02:20:46.384Z,4.75
2024-02-21T02:23:19.820Z,5.88
2024-02-21T02:25:47.026Z,4.95
2024-02-21T02:28:13.676Z,5.60
2024-02-21T02:30:40.470Z,5.13
2024-02-21T02:33:07.469Z,6.55
2024-02-21T02:35:34.336Z,5.32
2024-02-21T02:38:00.986Z,5.10
2024-02-21T02:40:29.242Z,5.65
2024-02-21T02:42:55.989Z,5.75
2024-02-21T02:45:23.706Z,4.95
2024-02-21T02:47:50.519Z,6.15
2024-02-21T02:50:19.747Z,5.82
2024-02-21T02:52:46.440Z,5.78
2024-02-21T02:55:13.322Z,5.25
2024-02-21T02:57:41.374Z,5.90
2024-02-21T03:00:08.987Z,5.93
2024-02-21T03:02:36.330Z,4.93
2024-02-21T03:05:13.216Z,5.57
2024-02-21T03:07:40.000Z,5.30
2024-02-21T03:10:07.286Z,6.28
2024-02-21T03:12:34.202Z,6.18
2024-02-21T03:15:02.335Z,7.00
2024-02-21T03:17:28.956Z,6.45
2024-02-21T03:19:55.703Z,6.20
2024-02-21T03:22:22.460Z,6.15
2024-02-21T03:24:49.084Z,6.68
2024-02-21T03:27:15.752Z,7.55
2024-02-21T03:29:42.456Z,7.05
2024-02-21T03:32:10.939Z,6.25
2024-02-21T03:34:37.656Z,6.93
2024-02-21T03:37:04.641Z,6.18
2024-02-21T03:39:32.419Z,5.90
2024-02-21T03:41:59.177Z,6.40
2024-02-21T03:44:25.814Z,6.35
2024-02-21T03:46:52.461Z,6.72
2024-02-21T03:49:20.616Z,6.15
2024-02-21T03:51:47.256Z,6.95
2024-02-21T03:54:13.832Z,6.40
2024-02-21T03:56:40.712Z,6.97
2024-02-21T03:59:08.040Z,6.28
2024-02-21T04:01:34.917Z,6.78
2024-02-21T04:04:02.026Z,6.95
2024-02-21T04:06:30.159Z,6.00
2024-02-21T04:08:57.810Z,7.45
2024-02-21T04:11:24.459Z,8.00
2024-02-21T04:13:51.433Z,6.75
2024-02-21T04:16:18.341Z,8.02
2024-02-21T04:18:45.311Z,7.07
2024-02-21T04:21:16.630Z,7.05
2024-02-21T04:23:45.028Z,7.40
2024-02-21T04:26:11.629Z,7.03
2024-02-21T04:28:38.429Z,7.40
2024-02-21T04:31:05.218Z,6.70
2024-02-21T04:33:31.811Z,7.03
2024-02-21T04:35:58.554Z,7.40
2024-02-21T04:38:25.226Z,7.22
2024-02-21T04:40:53.441Z,7.50
2024-02-21T04:43:20.177Z,6.85
2024-02-21T04:45:46.791Z,7.07
2024-02-21T04:48:13.493Z,6.65
2024-02-21T04:50:40.138Z,7.80
2024-02-21T04:53:06.787Z,8.25
2024-02-21T04:55:33.470Z,7.60
2024-02-21T04:58:01.590Z,6.88
2024-02-21T05:00:28.199Z,6.57
2024-02-21T05:02:54.832Z,7.72
2024-02-21T05:05:21.535Z,8.27
2024-02-21T05:07:48.521Z,6.70
2024-02-21T05:10:15.273Z,7.78
2024-02-21T05:12:41.870Z,7.50
2024-02-21T05:15:10.339Z,7.05
2024-02-21T05:17:37.106Z,7.82
2024-02-21T05:20:04.570Z,6.90
2024-02-21T05:22:31.249Z,7.95
2024-02-21T05:24:58.003Z,8.25
2024-02-21T05:27:24.668Z,8.48
2024-02-21T05:29:51.329Z,8.05
2024-02-21T05:32:19.330Z,7.63
2024-02-21T05:34:49.653Z,7.25
2024-02-21T05:37:16.309Z,7.50
2024-02-21T05:39:42.932Z,8.18
2024-02-21T05:42:09.560Z,8.80
2024-02-21T05:44:36.158Z,8.32
2024-02-21T05:47:02.836Z,9.55
2024-02-21T05:49:30.892Z,7.90
2024-02-21T05:51:58.513Z,8.38
2024-02-21T05:54:25.113Z,9.10
2024-02-21T05:56:51.804Z,9.63
2024-02-21T05:59:18.399Z,8.60
2024-02-21T06:01:45.180Z,8.90
2024-02-21T06:04:11.956Z,9.60
2024-02-21T06:06:40.017Z,8.65
2024-02-21T06:09:06.874Z,9.25
2024-02-21T06:11:35.754Z,8.82
2024-02-21T06:14:02.462Z,8.93
2024-02-21T06:16:29.135Z,9.38
2024-02-21T06:18:55.881Z,8.95
2024-02-21T06:21:22.591Z,8.88
2024-02-21T06:23:50.766Z,8.88
2024-02-21T06:26:17.413Z,9.75
2024-02-21T06:28:44.106Z,9.80
2024-02-21T06:31:10.961Z,10.18
2024-02-21T06:33:37.705Z,8.88
2024-02-21T06:36:04.752Z,9.77
2024-02-21T06:38:31.533Z,10.40
2024-02-21T06:40:59.826Z,10.45
2024-02-21T06:43:26.525Z,9.73
2024-02-21T06:45:53.175Z,9.80
2024-02-21T06:48:19.870Z,10.00
2024-02-21T06:50:46.665Z,9.57
2024-02-21T06:53:13.431Z,9.82
2024-02-21T06:55:40.092Z,9.75
2024-02-21T06:58:08.200Z,10.45
2024-02-21T07:00:34.871Z,9.85
2024-02-21T07:03:01.737Z,9.38
2024-02-21T07:05:28.430Z,9.18
2024-02-21T07:07:55.321Z,9.55
2024-02-21T07:10:22.105Z,10.15
2024-02-21T07:12:48.745Z,9.90
2024-02-21T07:15:16.867Z,10.55
2024-02-21T07:17:43.553Z,9.07
2024-02-21T07:20:11.009Z,8.38
2024-02-21T07:22:37.692Z,9.30
2024-02-21T07:25:06.691Z,9.20
2024-02-21T07:27:33.619Z,9.30
2024-02-21T07:30:00.489Z,8.57
2024-02-21T07:32:28.672Z,8.75
2024-02-21T07:34:55.494Z,8.98
2024-02-21T07:37:22.288Z,8.93
2024-02-21T07:39:48.938Z,8.93
2024-02-21T07:42:15.696Z,9.35
2024-02-21T07:44:42.342Z,8.55
2024-02-21T07:47:08.988Z,8.38
2024-02-21T07:49:45.061Z,8.50
2024-02-21T07:52:11.805Z,9.43
2024-02-21T07:54:38.429Z,8.30
2024-02-21T07:57:05.508Z,7.43
2024-02-21T07:59:32.413Z,8.60
2024-02-21T08:01:59.445Z,8.00
2024-02-21T08:04:26.612Z,7.85
2024-02-21T08:06:55.461Z,8.52
2024-02-21T08:09:22.389Z,7.93
2024-02-21T08:11:49.116Z,8.40
2024-02-21T08:14:17.605Z,8.18
2024-02-21T08:16:45.392Z,8.10
2024-02-21T08:19:12.559Z,8.57
2024-02-21T08:21:39.172Z,8.95
2024-02-21T08:24:07.618Z,8.50
2024-02-21T08:26:34.288Z,9.05
2024-02-21T08:29:01.108Z,9.13
2024-02-21T08:31:28.314Z,8.52
2024-02-21T08:33:55.089Z,9.68
2024-02-21T08:36:21.816Z,9.77
2024-02-21T08:38:48.828Z,8.43
2024-02-21T08:41:16.815Z,8.88
2024-02-21T08:43:43.431Z,9.00
2024-02-21T08:46:10.155Z,9.57
2024-02-21T08:48:36.845Z,10.23
2024-02-21T08:51:03.942Z,9.77
2024-02-21T08:53:30.969Z,9.95
2024-02-21T08:55:57.940Z,10.00
2024-02-21T08:58:30.800Z,9.73
2024-02-21T09:00:57.758Z,10.32
2024-02-21T09:03:24.420Z,10.40
2024-02-21T09:05:51.566Z,9.70
2024-02-21T09:08:18.189Z,10.05
2024-02-21T09:10:44.921Z,10.27
2024-02-21T09:13:11.557Z,11.43
2024-02-21T09:15:39.699Z,10.48
2024-02-21T09:18:06.469Z,10.15
2024-02-21T09:20:33.341Z,10.98
2024-02-21T09:23:00.132Z,10.25
2024-02-21T09:25:27.010Z,9.95
2024-02-21T09:27:55.345Z,10.70
2024-02-21T09:30:22.220Z,11.15
2024-02-21T09:32:50.406Z,10.82
2024-02-21T09:35:17.126Z,10.20
2024-02-21T09:37:43.832Z,10.35
2024-02-21T09:40:11.432Z,10.27
2024-02-21T09:42:39.002Z,10.85
2024-02-21T09:45:09.492Z,10.45
2024-02-21T09:47:51.432Z,10.80
2024-02-21T09:50:20.666Z,9.77
2024-02-21T09:52:49.392Z,10.77
2024-02-21T09:55:17.973Z,10.38
2024-02-21T09:57:45.571Z,10.13
2024-02-21T10:00:13.750Z,10.88
2024-02-21T10:02:40.689Z,10.73
2024-02-21T10:05:07.757Z,11.20
2024-02-21T10:07:35.867Z,10.20
2024-02-21T10:10:03.106Z,9.77
2024-02-21T10:12:29.765Z,10.10
2024-02-21T10:15:01.636Z,9.90
2024-02-21T10:17:28.317Z,9.00
2024-02-21T10:19:55.057Z,9.32
2024-02-21T10:22:21.867Z,8.98
2024-02-21T10:24:49.926Z,9.65
2024-02-21T10:27:16.517Z,9.63
2024-02-21T10:29:43.474Z,9.75
2024-02-21T10:32:11.242Z,8.75
2024-02-21T10:34:39.889Z,8.57
2024-02-21T10:37:07.571Z,8.95
2024-02-21T10:39:35.526Z,9.32
2024-02-21T10:42:04.631Z,8.70
2024-02-21T10:44:32.436Z,9.02
2024-02-21T10:47:00.074Z,8.05
2024-02-21T10:49:28.101Z,9.02
2024-02-21T10:52:01.528Z,9.57
2024-02-21T10:54:41.019Z,8.05
2024-02-21T10:57:11.421Z,7.78
2024-02-21T10:59:38.670Z,8.80
2024-02-21T11:02:05.874Z,8.75
2024-02-21T11:04:34.638Z,7.50
2024-02-21T11:07:02.606Z,7.60
2024-02-21T11:09:32.796Z,7.75
2024-02-21T11:11:59.887Z,7.53
2024-02-21T11:14:29.211Z,6.85
2024-02-21T11:16:55.978Z,6.28
2024-02-21T11:19:24.026Z,6.00
2024-02-21T11:21:51.501Z,5.00
2024-02-21T11:24:27.748Z,6.47
2024-02-21T11:26:54.446Z,5.10
2024-02-21T11:29:24.828Z,5.25
2024-02-21T11:31:53.719Z,5.10
2024-02-21T11:34:21.054Z,4.97
2024-02-21T11:36:48.753Z,4.20
2024-02-21T11:39:19.527Z,4.43
2024-02-21T11:41:46.130Z,4.93
2024-02-21T11:44:12.720Z,5.13
2024-02-21T11:46:39.782Z,4.93
2024-02-21T11:49:07.970Z,5.07
2024-02-21T11:51:35.639Z,5.75
2024-02-21T11:54:02.789Z,4.85
2024-02-21T11:56:29.502Z,5.10
2024-02-21T11:58:56.543Z,5.47
2024-02-21T12:01:23.293Z,5.63
2024-02-21T12:03:50.038Z,4.75
2024-02-21T12:06:18.725Z,5.57
2024-02-21T12:08:45.509Z,5.18
2024-02-21T12:11:20.777Z,4.95
2024-02-21T12:13:47.632Z,5.45
2024-02-21T12:16:16.500Z,5.28
2024-02-21T12:18:43.388Z,4.18
2024-02-21T12:21:10.963Z,4.03
2024-02-21T12:23:40.689Z,3.65
2024-02-21T12:26:07.491Z,3.58
2024-02-21T12:28:34.229Z,2.80
2024-02-21T12:31:01.021Z,3.00
2024-02-21T12:33:27.772Z,3.58
2024-02-21T12:35:54.480Z,3.80
2024-02-21T12:38:21.273Z,4.32
2024-02-21T12:40:49.961Z,4.25
2024-02-21T12:43:17.926Z,3.50
2024-02-21T12:45:46.150Z,3.25
2024-02-21T12:48:13.070Z,3.42
2024-02-21T12:50:40.531Z,3.35
2024-02-21T12:53:13.552Z,3.30
2024-02-21T12:55:44.105Z,3.90
2024-02-21T12:58:12.152Z,3.00
2024-02-21T13:00:38.926Z,3.10
2024-02-21T13:03:05.645Z,3.20
2024-02-21T13:05:32.315Z,3.22
2024-02-21T13:07:59.385Z,3.90
2024-02-21T13:10:26.302Z,3.90
2024-02-21T13:12:53.567Z,4.03
2024-02-21T13:15:21.600Z,4.05
2024-02-21T13:17:48.380Z,3.72
2024-02-21T13:20:15.356Z,4.10
2024-02-21T13:22:42.153Z,3.92
2024-02-21T13:25:09.201Z,4.22
2024-02-21T13:27:35.850Z,4.60
2024-02-21T13:30:02.842Z,4.03
2024-02-21T13:32:31.270Z,3.58
2024-02-21T13:34:57.945Z,4.35
2024-02-21T13:37:24.841Z,4.43
2024-02-21T13:39:51.856Z,3.95
2024-02-21T13:42:18.541Z,4.55
2024-02-21T13:44:45.231Z,4.63
2024-02-21T13:47:12.650Z,4.93
2024-02-21T13:49:40.739Z,4.30
2024-02-21T13:52:08.533Z,4.50
2024-02-21T13:54:36.285Z,4.13
2024-02-21T13:57:03.646Z,4.25
2024-02-21T13:59:35.856Z,4.00
2024-02-21T14:02:03.138Z,3.92
2024-02-21T14:04:31.889Z,3.63
2024-02-21T14:07:05.413Z,3.72
2024-02-21T14:11:59.178Z,2.90
2024-02-21T14:14:26.065Z,3.17
2024-02-21T14:16:52.790Z,3.20
2024-02-21T14:19:19.658Z,3.53
2024-02-21T14:21:47.315Z,3.38
2024-02-21T14:24:15.680Z,2.80
2024-02-21T14:26:42.386Z,3.60
2024-02-21T14:29:09.346Z,2.30
2024-02-21T14:31:36.058Z,3.00
2024-02-21T14:34:02.892Z,3.10
2024-02-21T14:36:29.737Z,2.88
2024-02-21T14:38:56.335Z,3.50
2024-02-21T14:41:24.296Z,2.70
2024-02-21T14:43:50.958Z,2.70
2024-02-21T14:46:17.634Z,2.60
2024-02-21T14:48:44.413Z,2.55
2024-02-21T14:51:11.208Z,2.22
2024-02-21T14:53:37.835Z,2.40
2024-02-21T14:56:05.465Z,2.42
2024-02-21T14:58:33.804Z,2.70
2024-02-21T15:01:00.639Z,2.53
2024-02-21T15:03:27.421Z,2.60
2024-02-21T15:05:54.262Z,2.53
2024-02-21T15:08:20.968Z,2.95
2024-02-21T15:10:47.611Z,2.33
2024-02-21T15:13:14.338Z,2.40
2024-02-21T15:15:42.391Z,2.45
2024-02-21T15:18:09.149Z,2.50
2024-02-21T15:20:35.886Z,2.30
2024-02-21T15:23:02.623Z,2.78
2024-02-21T15:25:29.303Z,2.30
2024-02-21T15:27:55.962Z,2.85
2024-02-21T15:30:22.564Z,3.13
2024-02-21T15:32:50.664Z,2.63
2024-02-21T15:35:17.647Z,2.92
2024-02-21T15:37:44.452Z,2.35
2024-02-21T15:40:11.965Z,2.47
2024-02-21T15:42:38.649Z,2.80
2024-02-21T15:45:06.371Z,2.58
2024-02-21T15:47:33.211Z,2.97
2024-02-21T15:50:01.476Z,2.88
2024-02-21T15:52:28.279Z,2.80
2024-02-21T15:54:54.934Z,2.60
2024-02-21T15:57:21.567Z,2.25
2024-02-21T15:59:48.225Z,2.85
2024-02-21T16:02:15.007Z,2.90
2024-02-21T16:04:43.582Z,2.83
2024-02-21T16:07:11.689Z,3.55
2024-02-21T16:09:38.450Z,3.10
2024-02-21T16:12:05.803Z,2.70
2024-02-21T16:14:32.446Z,2.85
2024-02-21T16:16:59.241Z,2.38
2024-02-21T16:19:26.042Z,2.47
2024-02-21T16:21:56.023Z,2.40
2024-02-21T16:24:24.040Z,2.25
2024-02-21T16:26:50.756Z,2.65
2024-02-21T16:29:17.357Z,2.20
2024-02-21T16:31:44.010Z,3.03
2024-02-21T16:34:10.700Z,4.93
2024-02-21T16:36:38.417Z,5.88
2024-02-21T16:39:05.080Z,5.15
2024-02-21T16:41:33.067Z,5.07
2024-02-21T16:43:59.796Z,4.47
2024-02-21T16:46:26.594Z,4.30
2024-02-21T16:48:53.191Z,3.17
2024-02-21T16:51:20.727Z,3.28
2024-02-21T16:53:47.476Z,7.32
2024-02-21T16:56:14.313Z,3.70
2024-02-21T16:58:43.607Z,3.55
2024-02-21T17:01:13.236Z,3.55
2024-02-21T17:03:41.376Z,3.80
2024-02-21T17:06:15.426Z,3.15
2024-02-21T17:08:45.212Z,3.47
2024-02-21T17:11:12.135Z,3.15
2024-02-21T17:13:38.864Z,3.05
2024-02-21T17:16:07.608Z,3.35
2024-02-21T17:18:34.385Z,3.72
2024-02-21T17:21:00.954Z,4.20
2024-02-21T17:23:27.589Z,3.28
2024-02-21T17:25:54.238Z,3.22
2024-02-21T17:28:20.890Z,3.03
2024-02-21T17:30:47.546Z,3.15
2024-02-21T17:33:15.529Z,2.90
2024-02-21T17:35:42.263Z,2.55
2024-02-21T17:38:08.982Z,3.90
2024-02-21T17:40:35.721Z,2.85
2024-02-21T17:43:02.506Z,2.97
2024-02-21T17:45:29.144Z,2.70
2024-02-21T17:47:55.918Z,3.28
2024-02-21T17:50:23.999Z,2.72
2024-02-21T17:52:50.865Z,3.25
2024-02-21T17:55:17.726Z,3.80
2024-02-21T17:57:44.804Z,3.60
2024-02-21T18:00:12.797Z,3.25
2024-02-21T18:02:39.495Z,3.25
2024-02-21T18:05:06.537Z,3.55
2024-02-21T18:07:34.851Z,3.17
2024-02-21T18:10:01.909Z,3.50
2024-02-21T18:12:28.546Z,3.33
2024-02-21T18:14:56.755Z,3.00
2024-02-21T18:17:24.985Z,2.95
2024-02-21T18:19:51.681Z,3.05
2024-02-21T18:22:18.393Z,3.97
2024-02-21T18:24:46.644Z,3.30
2024-02-21T18:27:13.325Z,3.55
2024-02-21T18:29:41.240Z,3.45
2024-02-21T18:32:09.629Z,3.95
2024-02-21T18:34:36.751Z,3.15
2024-02-21T18:37:04.019Z,3.15
2024-02-21T18:39:30.634Z,3.50
2024-02-21T18:41:58.674Z,2.75
2024-02-21T18:44:25.362Z,3.53
2024-02-21T18:46:52.083Z,3.40
2024-02-21T18:49:18.946Z,2.80
2024-02-21T18:51:45.551Z,4.30
2024-02-21T18:54:12.212Z,3.20
2024-02-21T18:56:38.909Z,3.63
2024-02-21T18:59:07.229Z,3.67
2024-02-21T19:01:33.922Z,3.67
2024-02-21T19:04:01.076Z,4.30
2024-02-21T19:06:27.803Z,4.32
2024-02-21T19:08:54.491Z,3.80
2024-02-21T19:11:22.025Z,4.38
2024-02-21T19:13:48.958Z,5.45
2024-02-21T19:16:17.055Z,4.85
2024-02-21T19:18:43.849Z,4.32
2024-02-21T19:21:10.482Z,4.93
2024-02-21T19:23:37.236Z,8.68
2024-02-21T19:26:04.432Z,10.82
2024-02-21T19:28:31.240Z,8.85
2024-02-21T19:30:59.116Z,6.43
2024-02-21T19:33:27.123Z,5.15
2024-02-21T19:35:53.730Z,4.75
2024-02-21T19:38:20.340Z,4.20
2024-02-21T19:40:49.150Z,3.97
2024-02-21T19:43:16.645Z,3.80
2024-02-21T19:45:43.354Z,3.75
2024-02-21T19:48:10.124Z,3.88
2024-02-21T19:50:38.135Z,13.90
2024-02-21T19:53:05.517Z,22.80
2024-02-21T19:55:35.714Z,18.40
2024-02-21T19:58:02.661Z,9.57
2024-02-21T20:00:29.511Z,12.60
2024-02-21T20:02:56.098Z,27.00
2024-02-21T20:05:22.866Z,14.20
2024-02-21T20:07:51.116Z,5.90
2024-02-21T20:10:18.304Z,4.68
2024-02-21T20:12:45.549Z,4.28
2024-02-21T20:15:12.756Z,4.78
2024-02-21T20:17:39.681Z,4.38
2024-02-21T20:20:07.777Z,4.55
2024-02-21T20:22:34.505Z,4.28
2024-02-21T20:25:02.686Z,4.38
2024-02-21T20:27:29.340Z,4.45
2024-02-21T20:29:56.053Z,4.72
2024-02-21T20:32:22.733Z,5.28
2024-02-21T20:34:49.553Z,5.38
2024-02-21T20:37:16.222Z,4.82
2024-02-21T20:39:42.839Z,5.35
2024-02-21T20:42:10.859Z,5.05
2024-02-21T20:44:37.531Z,4.38
2024-02-21T20:47:07.172Z,4.22
2024-02-21T20:49:34.557Z,4.45
2024-02-21T20:52:01.326Z,3.60
2024-02-21T20:54:27.939Z,3.53
2024-02-21T20:56:56.159Z,5.30
2024-02-21T20:59:25.752Z,6.68
2024-02-21T21:02:02.050Z,4.68
2024-02-21T21:04:30.437Z,3.55
2024-02-21T21:06:57.267Z,3.58
2024-02-21T21:09:23.933Z,5.88
2024-02-21T21:11:50.707Z,6.25
2024-02-21T21:14:17.682Z,4.43
2024-02-21T21:16:46.134Z,3.60
2024-02-21T21:19:12.902Z,3.65
2024-02-21T21:21:39.541Z,3.25
2024-02-21T21:24:07.328Z,2.80
2024-02-21T21:26:33.967Z,3.10
2024-02-21T21:29:00.643Z,3.50
2024-02-21T21:31:27.457Z,3.40
2024-02-21T21:33:55.651Z,2.97
2024-02-21T21:36:22.358Z,2.75
2024-02-21T21:38:49.102Z,3.20
2024-02-21T21:41:16.421Z,3.33
2024-02-21T21:43:43.299Z,2.75
2024-02-21T21:46:12.962Z,2.92
2024-02-21T21:48:39.695Z,3.60
2024-02-21T21:51:07.928Z,2.80
2024-02-21T21:53:34.615Z,2.88
2024-02-21T21:56:01.966Z,2.47
2024-02-21T21:58:28.812Z,2.80
2024-02-21T22:00:55.481Z,3.28
2024-02-21T22:03:22.126Z,2.50
2024-02-21T22:05:48.742Z,3.33
2024-02-21T22:08:16.951Z,3.00
2024-02-21T22:10:43.539Z,2.78
2024-02-21T22:13:10.165Z,2.80
2024-02-21T22:15:36.716Z,2.90
2024-02-21T22:18:05.214Z,2.63
2024-02-21T22:20:31.923Z,2.67
2024-02-21T22:22:58.646Z,2.50
2024-02-21T22:25:26.670Z,3.25
2024-02-21T22:27:53.224Z,2.13
2024-02-21T22:30:19.822Z,2.30
2024-02-21T22:32:46.403Z,2.33
2024-02-21T22:35:13.052Z,2.30
2024-02-21T22:37:39.641Z,2.58
2024-02-21T22:40:07.634Z,2.50
2024-02-21T22:42:35.554Z,2.35
2024-02-21T22:45:02.106Z,2.33
2024-02-21T22:47:28.727Z,2.45
2024-02-21T22:49:55.504Z,2.72
2024-02-21T22:52:22.108Z,2.42
2024-02-21T22:54:48.687Z,2.30
2024-02-21T22:57:15.296Z,2.20
2024-02-21T22:59:43.187Z,2.33
2024-02-21T23:02:09.945Z,2.83
2024-02-21T23:04:36.597Z,2.60
2024-02-21T23:07:04.498Z,2.97
2024-02-21T23:09:33.030Z,2.33
2024-02-21T23:11:59.717Z,2.10
2024-02-21T23:14:26.486Z,2.15
2024-02-21T23:16:54.490Z,2.35
2024-02-21T23:19:21.236Z,2.72
2024-02-21T23:21:47.906Z,2.63
2024-02-21T23:24:14.506Z,3.10
2024-02-21T23:26:43.763Z,2.42
2024-02-21T23:29:10.454Z,2.08
2024-02-21T23:31:39.228Z,2.22
2024-02-21T23:34:07.587Z,2.25
2024-02-21T23:36:34.737Z,2.60
2024-02-21T23:39:01.527Z,2.40
2024-02-21T23:41:28.266Z,2.17
2024-02-21T23:43:58.186Z,2.65
2024-02-21T23:46:27.075Z,2.13
2024-02-21T23:48:55.834Z,2.20
2024-02-21T23:51:23.762Z,2.13
2024-02-21T23:53:50.378Z,1.90
2024-02-21T23:56:17.024Z,2.08
2024-02-21T23:58:43.853Z,2.20
